sensor_id;sensor_type;location;lat;lon;timestamp;temperature;humidity
40636;DHT22;26642;55.766;37.828;2023-11-21T00:01:10;6.70;66.80
40636;DHT22;26642;55.766;37.828;2023-11-21T00:03:36;6.70;66.80
40636;DHT22;26642;55.766;37.828;2023-11-21T00:06:02;6.70;66.80
40636;DHT22;26642;55.766;37.828;2023-11-21T00:08:28;6.70;66.60
40636;DHT22;26642;55.766;37.828;2023-11-21T00:10:55;6.70;66.60
40636;DHT22;26642;55.766;37.828;2023-11-21T00:13:21;6.70;66.60
40636;DHT22;26642;55.766;37.828;2023-11-21T00:15:47;6.70;66.60
40636;DHT22;26642;55.766;37.828;2023-11-21T00:18:13;6.70;66.60
40636;DHT22;26642;55.766;37.828;2023-11-21T00:20:39;6.70;66.40
40636;DHT22;26642;55.766;37.828;2023-11-21T00:23:05;6.70;66.40
40636;DHT22;26642;55.766;37.828;2023-11-21T00:25:32;6.70;66.40
40636;DHT22;26642;55.766;37.828;2023-11-21T00:27:58;6.70;66.40
40636;DHT22;26642;55.766;37.828;2023-11-21T00:30:27;6.70;66.30
40636;DHT22;26642;55.766;37.828;2023-11-21T00:32:54;6.70;66.30
40636;DHT22;26642;55.766;37.828;2023-11-21T00:35:20;6.70;66.30
40636;DHT22;26642;55.766;37.828;2023-11-21T00:37:47;6.70;66.20
40636;DHT22;26642;55.766;37.828;2023-11-21T00:40:15;6.70;66.20
40636;DHT22;26642;55.766;37.828;2023-11-21T00:42:42;6.70;66.20
40636;DHT22;26642;55.766;37.828;2023-11-21T00:45:08;6.70;66.80
40636;DHT22;26642;55.766;37.828;2023-11-21T00:47:34;6.70;66.20
40636;DHT22;26642;55.766;37.828;2023-11-21T00:50:00;6.70;66.30
40636;DHT22;26642;55.766;37.828;2023-11-21T00:52:26;6.70;66.30
40636;DHT22;26642;55.766;37.828;2023-11-21T00:54:52;6.70;66.30
40636;DHT22;26642;55.766;37.828;2023-11-21T00:57:18;6.70;66.30
40636;DHT22;26642;55.766;37.828;2023-11-21T00:59:44;6.70;66.20
40636;DHT22;26642;55.766;37.828;2023-11-21T01:02:10;6.80;66.20
40636;DHT22;26642;55.766;37.828;2023-11-21T01:04:36;6.70;66.20
40636;DHT22;26642;55.766;37.828;2023-11-21T01:07:03;6.70;66.10
40636;DHT22;26642;55.766;37.828;2023-11-21T01:09:31;6.70;66.10
40636;DHT22;26642;55.766;37.828;2023-11-21T01:11:57;6.80;66.10
40636;DHT22;26642;55.766;37.828;2023-11-21T01:14:23;6.80;66.00
40636;DHT22;26642;55.766;37.828;2023-11-21T01:16:48;6.80;65.80
40636;DHT22;26642;55.766;37.828;2023-11-21T01:19:14;6.70;65.70
40636;DHT22;26642;55.766;37.828;2023-11-21T01:21:40;6.80;65.80
40636;DHT22;26642;55.766;37.828;2023-11-21T01:24:07;6.80;65.80
40636;DHT22;26642;55.766;37.828;2023-11-21T01:26:33;6.80;65.80
40636;DHT22;26642;55.766;37.828;2023-11-21T01:29:01;6.70;65.50
40636;DHT22;26642;55.766;37.828;2023-11-21T01:31:27;6.80;65.50
40636;DHT22;26642;55.766;37.828;2023-11-21T01:33:55;6.80;65.70
40636;DHT22;26642;55.766;37.828;2023-11-21T01:36:22;6.80;65.70
40636;DHT22;26642;55.766;37.828;2023-11-21T01:38:48;6.80;65.70
40636;DHT22;26642;55.766;37.828;2023-11-21T01:41:14;6.80;65.80
40636;DHT22;26642;55.766;37.828;2023-11-21T01:43:41;6.80;65.60
40636;DHT22;26642;55.766;37.828;2023-11-21T01:46:08;6.80;65.60
40636;DHT22;26642;55.766;37.828;2023-11-21T01:48:35;6.80;65.80
40636;DHT22;26642;55.766;37.828;2023-11-21T01:51:02;6.80;65.70
40636;DHT22;26642;55.766;37.828;2023-11-21T01:53:28;6.80;65.80
40636;DHT22;26642;55.766;37.828;2023-11-21T01:55:55;6.80;65.70
40636;DHT22;26642;55.766;37.828;2023-11-21T01:58:22;6.80;65.70
40636;DHT22;26642;55.766;37.828;2023-11-21T02:00:48;6.80;65.70
40636;DHT22;26642;55.766;37.828;2023-11-21T02:03:16;6.80;65.50
40636;DHT22;26642;55.766;37.828;2023-11-21T02:05:42;6.80;65.50
40636;DHT22;26642;55.766;37.828;2023-11-21T02:08:08;6.80;65.50
40636;DHT22;26642;55.766;37.828;2023-11-21T02:10:35;6.80;65.50
40636;DHT22;26642;55.766;37.828;2023-11-21T02:13:03;6.80;65.50
40636;DHT22;26642;55.766;37.828;2023-11-21T02:15:29;6.80;65.50
40636;DHT22;26642;55.766;37.828;2023-11-21T02:17:55;6.80;65.60
40636;DHT22;26642;55.766;37.828;2023-11-21T02:20:22;6.80;65.60
40636;DHT22;26642;55.766;37.828;2023-11-21T02:22:51;6.80;65.60
40636;DHT22;26642;55.766;37.828;2023-11-21T02:25:31;6.80;65.70
40636;DHT22;26642;55.766;37.828;2023-11-21T02:28:02;6.80;65.70
40636;DHT22;26642;55.766;37.828;2023-11-21T02:30:30;6.80;65.80
40636;DHT22;26642;55.766;37.828;2023-11-21T02:32:59;6.80;65.50
40636;DHT22;26642;55.766;37.828;2023-11-21T02:35:26;6.80;64.90
40636;DHT22;26642;55.766;37.828;2023-11-21T02:37:53;6.90;68.60
40636;DHT22;26642;55.766;37.828;2023-11-21T02:40:19;6.90;69.80
40636;DHT22;26642;55.766;37.828;2023-11-21T02:42:47;7.00;69.30
40636;DHT22;26642;55.766;37.828;2023-11-21T02:45:14;7.00;67.00
40636;DHT22;26642;55.766;37.828;2023-11-21T02:47:43;6.90;65.30
40636;DHT22;26642;55.766;37.828;2023-11-21T02:50:09;6.90;63.40
40636;DHT22;26642;55.766;37.828;2023-11-21T02:52:36;6.90;62.40
40636;DHT22;26642;55.766;37.828;2023-11-21T02:55:02;6.80;61.40
40636;DHT22;26642;55.766;37.828;2023-11-21T02:57:28;6.80;60.60
40636;DHT22;26642;55.766;37.828;2023-11-21T02:59:55;6.80;60.10
40636;DHT22;26642;55.766;37.828;2023-11-21T03:02:21;6.70;59.60
40636;DHT22;26642;55.766;37.828;2023-11-21T03:04:48;6.70;59.30
40636;DHT22;26642;55.766;37.828;2023-11-21T03:07:15;6.60;59.10
40636;DHT22;26642;55.766;37.828;2023-11-21T03:09:41;6.60;58.80
40636;DHT22;26642;55.766;37.828;2023-11-21T03:12:07;6.60;58.80
40636;DHT22;26642;55.766;37.828;2023-11-21T03:14:34;6.60;58.80
40636;DHT22;26642;55.766;37.828;2023-11-21T03:17:00;6.50;58.30
40636;DHT22;26642;55.766;37.828;2023-11-21T03:19:27;6.50;58.40
40636;DHT22;26642;55.766;37.828;2023-11-21T03:21:53;6.40;58.30
40636;DHT22;26642;55.766;37.828;2023-11-21T03:24:19;6.40;57.90
40636;DHT22;26642;55.766;37.828;2023-11-21T03:26:46;6.40;57.80
40636;DHT22;26642;55.766;37.828;2023-11-21T03:29:17;6.30;57.80
40636;DHT22;26642;55.766;37.828;2023-11-21T03:31:43;6.30;57.70
40636;DHT22;26642;55.766;37.828;2023-11-21T03:34:26;6.30;57.60
40636;DHT22;26642;55.766;37.828;2023-11-21T03:36:54;6.30;57.50
40636;DHT22;26642;55.766;37.828;2023-11-21T03:39:20;6.20;57.50
40636;DHT22;26642;55.766;37.828;2023-11-21T03:41:47;6.20;57.10
40636;DHT22;26642;55.766;37.828;2023-11-21T03:44:13;6.20;57.10
40636;DHT22;26642;55.766;37.828;2023-11-21T03:46:39;6.20;57.10
40636;DHT22;26642;55.766;37.828;2023-11-21T03:49:05;6.20;57.20
40636;DHT22;26642;55.766;37.828;2023-11-21T03:51:33;6.20;57.10
40636;DHT22;26642;55.766;37.828;2023-11-21T03:54:01;6.10;57.00
40636;DHT22;26642;55.766;37.828;2023-11-21T03:56:27;6.10;57.00
40636;DHT22;26642;55.766;37.828;2023-11-21T03:58:53;6.10;57.00
40636;DHT22;26642;55.766;37.828;2023-11-21T04:01:23;6.10;57.10
40636;DHT22;26642;55.766;37.828;2023-11-21T04:03:50;6.10;57.00
40636;DHT22;26642;55.766;37.828;2023-11-21T04:06:17;6.00;56.80
40636;DHT22;26642;55.766;37.828;2023-11-21T04:08:46;6.00;56.90
40636;DHT22;26642;55.766;37.828;2023-11-21T04:11:12;6.00;56.80
40636;DHT22;26642;55.766;37.828;2023-11-21T04:13:41;6.00;56.90
40636;DHT22;26642;55.766;37.828;2023-11-21T04:16:08;6.00;56.70
40636;DHT22;26642;55.766;37.828;2023-11-21T04:18:38;6.00;56.70
40636;DHT22;26642;55.766;37.828;2023-11-21T04:21:08;5.90;56.70
40636;DHT22;26642;55.766;37.828;2023-11-21T04:23:34;5.90;56.70
40636;DHT22;26642;55.766;37.828;2023-11-21T04:26:01;5.90;57.00
40636;DHT22;26642;55.766;37.828;2023-11-21T04:28:28;5.90;56.90
40636;DHT22;26642;55.766;37.828;2023-11-21T04:30:54;5.90;56.80
40636;DHT22;26642;55.766;37.828;2023-11-21T04:33:20;5.90;57.30
40636;DHT22;26642;55.766;37.828;2023-11-21T04:35:47;5.90;56.70
40636;DHT22;26642;55.766;37.828;2023-11-21T04:38:14;5.90;56.60
40636;DHT22;26642;55.766;37.828;2023-11-21T04:40:40;5.90;56.60
40636;DHT22;26642;55.766;37.828;2023-11-21T04:43:06;5.90;56.60
40636;DHT22;26642;55.766;37.828;2023-11-21T04:45:32;5.90;56.70
40636;DHT22;26642;55.766;37.828;2023-11-21T04:47:58;5.90;57.20
40636;DHT22;26642;55.766;37.828;2023-11-21T04:50:24;5.90;57.10
40636;DHT22;26642;55.766;37.828;2023-11-21T04:52:52;5.90;57.30
40636;DHT22;26642;55.766;37.828;2023-11-21T04:55:19;5.90;57.10
40636;DHT22;26642;55.766;37.828;2023-11-21T04:57:45;5.80;57.20
40636;DHT22;26642;55.766;37.828;2023-11-21T05:00:12;5.80;57.20
40636;DHT22;26642;55.766;37.828;2023-11-21T05:02:40;5.80;57.10
40636;DHT22;26642;55.766;37.828;2023-11-21T05:05:07;5.80;57.20
40636;DHT22;26642;55.766;37.828;2023-11-21T05:07:36;5.80;58.30
40636;DHT22;26642;55.766;37.828;2023-11-21T05:10:03;5.80;58.50
40636;DHT22;26642;55.766;37.828;2023-11-21T05:12:31;5.80;58.80
40636;DHT22;26642;55.766;37.828;2023-11-21T05:15:04;5.80;58.90
40636;DHT22;26642;55.766;37.828;2023-11-21T05:17:38;5.80;58.50
40636;DHT22;26642;55.766;37.828;2023-11-21T05:20:08;5.80;58.20
40636;DHT22;26642;55.766;37.828;2023-11-21T05:22:36;5.80;58.30
40636;DHT22;26642;55.766;37.828;2023-11-21T05:25:03;5.80;58.30
40636;DHT22;26642;55.766;37.828;2023-11-21T05:27:30;5.80;58.00
40636;DHT22;26642;55.766;37.828;2023-11-21T05:30:01;5.80;58.10
40636;DHT22;26642;55.766;37.828;2023-11-21T05:32:27;5.80;57.90
40636;DHT22;26642;55.766;37.828;2023-11-21T05:34:53;5.80;57.90
40636;DHT22;26642;55.766;37.828;2023-11-21T05:37:19;5.80;57.70
40636;DHT22;26642;55.766;37.828;2023-11-21T05:39:45;5.80;57.70
40636;DHT22;26642;55.766;37.828;2023-11-21T05:42:11;5.80;57.70
40636;DHT22;26642;55.766;37.828;2023-11-21T05:44:37;5.80;57.70
40636;DHT22;26642;55.766;37.828;2023-11-21T05:47:06;5.80;57.60
40636;DHT22;26642;55.766;37.828;2023-11-21T05:49:33;5.80;57.60
40636;DHT22;26642;55.766;37.828;2023-11-21T05:52:00;5.80;57.40
40636;DHT22;26642;55.766;37.828;2023-11-21T05:54:26;5.80;57.50
40636;DHT22;26642;55.766;37.828;2023-11-21T05:56:52;5.80;57.40
40636;DHT22;26642;55.766;37.828;2023-11-21T05:59:18;5.80;57.50
40636;DHT22;26642;55.766;37.828;2023-11-21T06:01:46;5.80;57.60
40636;DHT22;26642;55.766;37.828;2023-11-21T06:04:12;5.80;57.80
40636;DHT22;26642;55.766;37.828;2023-11-21T06:06:39;5.80;57.80
40636;DHT22;26642;55.766;37.828;2023-11-21T06:09:05;5.80;57.90
40636;DHT22;26642;55.766;37.828;2023-11-21T06:11:37;5.80;57.90
40636;DHT22;26642;55.766;37.828;2023-11-21T06:14:03;5.80;57.90
40636;DHT22;26642;55.766;37.828;2023-11-21T06:16:29;5.90;57.90
40636;DHT22;26642;55.766;37.828;2023-11-21T06:18:55;5.80;58.00
40636;DHT22;26642;55.766;37.828;2023-11-21T06:21:23;5.80;57.90
40636;DHT22;26642;55.766;37.828;2023-11-21T06:23:59;5.90;58.00
40636;DHT22;26642;55.766;37.828;2023-11-21T06:26:58;5.80;57.90
40636;DHT22;26642;55.766;37.828;2023-11-21T06:29:30;5.90;57.90
40636;DHT22;26642;55.766;37.828;2023-11-21T06:32:00;5.90;57.90
40636;DHT22;26642;55.766;37.828;2023-11-21T06:34:32;5.90;57.60
40636;DHT22;26642;55.766;37.828;2023-11-21T06:37:38;5.90;57.50
40636;DHT22;26642;55.766;37.828;2023-11-21T06:40:25;5.90;57.10
40636;DHT22;26642;55.766;37.828;2023-11-21T06:46:27;5.80;57.80
40636;DHT22;26642;55.766;37.828;2023-11-21T06:49:55;5.90;57.30
40636;DHT22;26642;55.766;37.828;2023-11-21T06:53:13;5.90;58.00
40636;DHT22;26642;55.766;37.828;2023-11-21T06:56:29;5.90;57.30
40636;DHT22;26642;55.766;37.828;2023-11-21T06:59:40;5.90;57.20
40636;DHT22;26642;55.766;37.828;2023-11-21T07:02:49;6.00;57.20
40636;DHT22;26642;55.766;37.828;2023-11-21T07:05:29;5.90;57.20
40636;DHT22;26642;55.766;37.828;2023-11-21T07:15:32;6.00;57.30
40636;DHT22;26642;55.766;37.828;2023-11-21T07:18:20;6.10;57.30
40636;DHT22;26642;55.766;37.828;2023-11-21T07:25:16;6.00;57.00
40636;DHT22;26642;55.766;37.828;2023-11-21T07:28:01;6.10;57.10
40636;DHT22;26642;55.766;37.828;2023-11-21T07:30:29;6.10;57.00
40636;DHT22;26642;55.766;37.828;2023-11-21T07:33:17;6.10;57.00
40636;DHT22;26642;55.766;37.828;2023-11-21T07:36:24;6.10;56.90
40636;DHT22;26642;55.766;37.828;2023-11-21T07:39:16;6.10;56.80
40636;DHT22;26642;55.766;37.828;2023-11-21T07:42:11;6.10;56.70
40636;DHT22;26642;55.766;37.828;2023-11-21T07:48:06;6.10;56.70
40636;DHT22;26642;55.766;37.828;2023-11-21T07:50:55;6.10;56.70
40636;DHT22;26642;55.766;37.828;2023-11-21T07:54:04;6.10;56.50
40636;DHT22;26642;55.766;37.828;2023-11-21T07:57:02;6.10;56.40
40636;DHT22;26642;55.766;37.828;2023-11-21T07:59:50;6.20;56.30
40636;DHT22;26642;55.766;37.828;2023-11-21T08:03:10;6.10;56.30
40636;DHT22;26642;55.766;37.828;2023-11-21T08:05:59;6.20;56.30
40636;DHT22;26642;55.766;37.828;2023-11-21T08:14:17;6.20;56.20
40636;DHT22;26642;55.766;37.828;2023-11-21T08:28:18;6.30;55.70
40636;DHT22;26642;55.766;37.828;2023-11-21T08:30:45;6.30;55.70
40636;DHT22;26642;55.766;37.828;2023-11-21T08:33:11;6.30;55.60
40636;DHT22;26642;55.766;37.828;2023-11-21T08:35:38;6.30;55.60
40636;DHT22;26642;55.766;37.828;2023-11-21T08:38:04;6.30;55.50
40636;DHT22;26642;55.766;37.828;2023-11-21T08:40:30;6.30;55.40
40636;DHT22;26642;55.766;37.828;2023-11-21T08:42:56;6.30;55.40
40636;DHT22;26642;55.766;37.828;2023-11-21T08:45:25;6.30;55.40
40636;DHT22;26642;55.766;37.828;2023-11-21T08:47:51;6.40;55.30
40636;DHT22;26642;55.766;37.828;2023-11-21T08:50:18;6.40;55.40
40636;DHT22;26642;55.766;37.828;2023-11-21T08:52:45;6.40;55.20
40636;DHT22;26642;55.766;37.828;2023-11-21T08:55:12;6.40;55.10
40636;DHT22;26642;55.766;37.828;2023-11-21T08:57:39;6.40;55.00
40636;DHT22;26642;55.766;37.828;2023-11-21T09:00:07;6.40;54.70
40636;DHT22;26642;55.766;37.828;2023-11-21T09:02:37;6.40;54.60
40636;DHT22;26642;55.766;37.828;2023-11-21T09:05:07;6.40;54.60
40636;DHT22;26642;55.766;37.828;2023-11-21T09:07:35;6.40;54.60
40636;DHT22;26642;55.766;37.828;2023-11-21T09:10:02;6.40;54.50
40636;DHT22;26642;55.766;37.828;2023-11-21T09:12:28;6.50;54.40
40636;DHT22;26642;55.766;37.828;2023-11-21T09:14:54;6.40;54.30
40636;DHT22;26642;55.766;37.828;2023-11-21T09:17:20;6.50;54.40
40636;DHT22;26642;55.766;37.828;2023-11-21T09:19:46;6.40;54.40
40636;DHT22;26642;55.766;37.828;2023-11-21T09:22:17;6.40;54.20
40636;DHT22;26642;55.766;37.828;2023-11-21T09:24:43;6.50;54.40
40636;DHT22;26642;55.766;37.828;2023-11-21T09:27:09;6.40;54.30
40636;DHT22;26642;55.766;37.828;2023-11-21T09:29:36;6.50;54.40
40636;DHT22;26642;55.766;37.828;2023-11-21T09:32:06;6.50;54.20
40636;DHT22;26642;55.766;37.828;2023-11-21T09:34:34;6.50;54.30
40636;DHT22;26642;55.766;37.828;2023-11-21T09:37:04;6.50;54.30
40636;DHT22;26642;55.766;37.828;2023-11-21T09:39:32;6.50;54.10
40636;DHT22;26642;55.766;37.828;2023-11-21T09:42:23;6.50;54.10
40636;DHT22;26642;55.766;37.828;2023-11-21T09:47:27;6.50;54.10
40636;DHT22;26642;55.766;37.828;2023-11-21T09:49:56;6.50;54.10
40636;DHT22;26642;55.766;37.828;2023-11-21T09:52:27;6.50;54.00
40636;DHT22;26642;55.766;37.828;2023-11-21T09:54:55;6.50;54.60
40636;DHT22;26642;55.766;37.828;2023-11-21T09:57:25;6.40;53.60
40636;DHT22;26642;55.766;37.828;2023-11-21T09:59:52;6.50;53.80
40636;DHT22;26642;55.766;37.828;2023-11-21T10:02:28;6.50;53.90
40636;DHT22;26642;55.766;37.828;2023-11-21T10:04:59;6.50;53.80
40636;DHT22;26642;55.766;37.828;2023-11-21T10:07:27;6.50;53.90
40636;DHT22;26642;55.766;37.828;2023-11-21T10:09:55;6.50;53.90
40636;DHT22;26642;55.766;37.828;2023-11-21T10:12:22;6.40;54.00
40636;DHT22;26642;55.766;37.828;2023-11-21T10:14:52;6.40;54.20
40636;DHT22;26642;55.766;37.828;2023-11-21T10:17:24;6.50;54.30
40636;DHT22;26642;55.766;37.828;2023-11-21T10:19:55;6.40;54.20
40636;DHT22;26642;55.766;37.828;2023-11-21T10:22:22;6.40;54.30
40636;DHT22;26642;55.766;37.828;2023-11-21T10:24:48;6.50;54.40
40636;DHT22;26642;55.766;37.828;2023-11-21T10:27:14;6.50;54.50
40636;DHT22;26642;55.766;37.828;2023-11-21T10:29:40;6.50;54.60
40636;DHT22;26642;55.766;37.828;2023-11-21T10:32:07;6.40;54.70
40636;DHT22;26642;55.766;37.828;2023-11-21T10:34:33;6.50;54.80
40636;DHT22;26642;55.766;37.828;2023-11-21T10:37:13;6.50;55.30
40636;DHT22;26642;55.766;37.828;2023-11-21T10:39:41;6.50;54.60
40636;DHT22;26642;55.766;37.828;2023-11-21T10:42:09;6.50;54.60
40636;DHT22;26642;55.766;37.828;2023-11-21T10:44:36;6.50;54.50
40636;DHT22;26642;55.766;37.828;2023-11-21T10:47:01;6.50;54.70
40636;DHT22;26642;55.766;37.828;2023-11-21T10:49:28;6.50;54.60
40636;DHT22;26642;55.766;37.828;2023-11-21T10:51:54;6.50;54.50
40636;DHT22;26642;55.766;37.828;2023-11-21T10:54:23;6.50;54.40
40636;DHT22;26642;55.766;37.828;2023-11-21T10:56:50;6.50;54.60
40636;DHT22;26642;55.766;37.828;2023-11-21T10:59:18;6.50;54.70
40636;DHT22;26642;55.766;37.828;2023-11-21T11:01:47;6.50;54.60
40636;DHT22;26642;55.766;37.828;2023-11-21T11:04:18;6.50;54.50
40636;DHT22;26642;55.766;37.828;2023-11-21T11:06:54;6.50;54.40
40636;DHT22;26642;55.766;37.828;2023-11-21T11:09:20;6.50;54.50
40636;DHT22;26642;55.766;37.828;2023-11-21T11:11:46;6.50;54.50
40636;DHT22;26642;55.766;37.828;2023-11-21T11:14:13;6.50;54.50
40636;DHT22;26642;55.766;37.828;2023-11-21T11:16:40;6.50;54.40
40636;DHT22;26642;55.766;37.828;2023-11-21T11:19:07;6.50;54.30
40636;DHT22;26642;55.766;37.828;2023-11-21T11:33:56;6.50;54.10
40636;DHT22;26642;55.766;37.828;2023-11-21T11:38:51;6.40;54.10
40636;DHT22;26642;55.766;37.828;2023-11-21T11:41:29;6.40;54.00
40636;DHT22;26642;55.766;37.828;2023-11-21T11:43:58;6.50;54.10
40636;DHT22;26642;55.766;37.828;2023-11-21T11:46:44;6.50;54.00
40636;DHT22;26642;55.766;37.828;2023-11-21T11:49:28;6.50;53.90
40636;DHT22;26642;55.766;37.828;2023-11-21T11:52:31;6.50;53.90
40636;DHT22;26642;55.766;37.828;2023-11-21T11:54:59;6.50;53.90
40636;DHT22;26642;55.766;37.828;2023-11-21T11:57:25;6.50;53.80
40636;DHT22;26642;55.766;37.828;2023-11-21T12:02:51;6.50;53.80
40636;DHT22;26642;55.766;37.828;2023-11-21T12:05:18;6.50;53.90
40636;DHT22;26642;55.766;37.828;2023-11-21T12:07:45;6.50;53.80
40636;DHT22;26642;55.766;37.828;2023-11-21T12:10:13;6.50;53.80
40636;DHT22;26642;55.766;37.828;2023-11-21T12:12:51;6.50;53.90
40636;DHT22;26642;55.766;37.828;2023-11-21T12:15:19;6.50;53.90
40636;DHT22;26642;55.766;37.828;2023-11-21T12:18:15;6.40;53.90
40636;DHT22;26642;55.766;37.828;2023-11-21T12:47:16;6.40;54.80
40636;DHT22;26642;55.766;37.828;2023-11-21T12:54:52;6.50;55.40
40636;DHT22;26642;55.766;37.828;2023-11-21T12:57:18;6.50;55.70
40636;DHT22;26642;55.766;37.828;2023-11-21T12:59:45;6.50;55.70
40636;DHT22;26642;55.766;37.828;2023-11-21T13:02:13;6.50;55.90
40636;DHT22;26642;55.766;37.828;2023-11-21T13:04:41;6.50;55.80
40636;DHT22;26642;55.766;37.828;2023-11-21T13:07:07;6.50;55.70
40636;DHT22;26642;55.766;37.828;2023-11-21T13:09:38;6.50;55.60
40636;DHT22;26642;55.766;37.828;2023-11-21T13:12:04;6.50;55.60
40636;DHT22;26642;55.766;37.828;2023-11-21T13:14:34;6.50;55.70
40636;DHT22;26642;55.766;37.828;2023-11-21T13:17:00;6.50;55.70
40636;DHT22;26642;55.766;37.828;2023-11-21T13:19:26;6.50;55.70
40636;DHT22;26642;55.766;37.828;2023-11-21T13:21:52;6.50;54.90
40636;DHT22;26642;55.766;37.828;2023-11-21T13:24:20;6.50;54.10
40636;DHT22;26642;55.766;37.828;2023-11-21T13:26:47;6.50;53.40
40636;DHT22;26642;55.766;37.828;2023-11-21T13:29:14;6.40;52.90
40636;DHT22;26642;55.766;37.828;2023-11-21T13:31:41;6.40;52.60
40636;DHT22;26642;55.766;37.828;2023-11-21T13:34:08;6.40;52.20
40636;DHT22;26642;55.766;37.828;2023-11-21T13:36:34;6.30;52.00
40636;DHT22;26642;55.766;37.828;2023-11-21T13:39:01;6.30;52.40
40636;DHT22;26642;55.766;37.828;2023-11-21T13:41:33;6.20;51.70
40636;DHT22;26642;55.766;37.828;2023-11-21T13:44:00;6.30;51.50
40636;DHT22;26642;55.766;37.828;2023-11-21T13:46:40;6.20;51.50
40636;DHT22;26642;55.766;37.828;2023-11-21T13:49:06;6.20;51.40
40636;DHT22;26642;55.766;37.828;2023-11-21T13:51:36;6.20;51.40
40636;DHT22;26642;55.766;37.828;2023-11-21T13:54:13;6.20;51.40
40636;DHT22;26642;55.766;37.828;2023-11-21T13:56:41;6.10;51.30
40636;DHT22;26642;55.766;37.828;2023-11-21T13:59:08;6.10;51.30
40636;DHT22;26642;55.766;37.828;2023-11-21T14:01:51;6.10;51.20
40636;DHT22;26642;55.766;37.828;2023-11-21T14:04:37;6.10;51.20
40636;DHT22;26642;55.766;37.828;2023-11-21T14:07:22;6.00;51.10
40636;DHT22;26642;55.766;37.828;2023-11-21T14:09:58;6.00;50.90
40636;DHT22;26642;55.766;37.828;2023-11-21T14:12:24;6.00;51.00
40636;DHT22;26642;55.766;37.828;2023-11-21T14:14:50;6.00;50.90
40636;DHT22;26642;55.766;37.828;2023-11-21T14:17:16;6.00;50.90
40636;DHT22;26642;55.766;37.828;2023-11-21T14:19:42;6.00;51.10
40636;DHT22;26642;55.766;37.828;2023-11-21T14:22:10;6.00;51.20
40636;DHT22;26642;55.766;37.828;2023-11-21T14:24:36;6.00;51.30
40636;DHT22;26642;55.766;37.828;2023-11-21T14:27:02;5.90;51.30
40636;DHT22;26642;55.766;37.828;2023-11-21T14:29:29;5.90;51.40
40636;DHT22;26642;55.766;37.828;2023-11-21T14:31:55;5.90;51.40
40636;DHT22;26642;55.766;37.828;2023-11-21T14:34:23;5.90;51.40
40636;DHT22;26642;55.766;37.828;2023-11-21T14:36:50;5.90;51.50
40636;DHT22;26642;55.766;37.828;2023-11-21T14:39:16;5.90;51.60
40636;DHT22;26642;55.766;37.828;2023-11-21T14:41:57;5.90;51.50
40636;DHT22;26642;55.766;37.828;2023-11-21T14:44:23;5.90;51.50
40636;DHT22;26642;55.766;37.828;2023-11-21T14:46:52;5.90;51.60
40636;DHT22;26642;55.766;37.828;2023-11-21T14:49:20;5.90;51.70
40636;DHT22;26642;55.766;37.828;2023-11-21T14:51:49;5.90;51.70
40636;DHT22;26642;55.766;37.828;2023-11-21T14:54:33;5.90;51.80
40636;DHT22;26642;55.766;37.828;2023-11-21T14:57:14;5.90;51.70
40636;DHT22;26642;55.766;37.828;2023-11-21T14:59:49;5.90;51.70
40636;DHT22;26642;55.766;37.828;2023-11-21T15:02:18;5.90;51.70
40636;DHT22;26642;55.766;37.828;2023-11-21T15:05:04;5.90;51.80
40636;DHT22;26642;55.766;37.828;2023-11-21T15:07:32;5.90;51.80
40636;DHT22;26642;55.766;37.828;2023-11-21T15:09:58;5.90;51.70
40636;DHT22;26642;55.766;37.828;2023-11-21T15:12:23;5.80;51.80
40636;DHT22;26642;55.766;37.828;2023-11-21T15:14:53;5.90;51.60
40636;DHT22;26642;55.766;37.828;2023-11-21T15:17:21;5.80;51.40
40636;DHT22;26642;55.766;37.828;2023-11-21T15:19:56;5.80;51.30
40636;DHT22;26642;55.766;37.828;2023-11-21T15:22:22;5.80;51.20
40636;DHT22;26642;55.766;37.828;2023-11-21T15:24:48;5.80;51.10
40636;DHT22;26642;55.766;37.828;2023-11-21T15:27:16;5.80;51.10
40636;DHT22;26642;55.766;37.828;2023-11-21T15:29:43;5.80;52.50
40636;DHT22;26642;55.766;37.828;2023-11-21T15:32:09;5.90;54.50
40636;DHT22;26642;55.766;37.828;2023-11-21T15:34:37;5.90;56.00
40636;DHT22;26642;55.766;37.828;2023-11-21T15:37:05;6.00;56.90
40636;DHT22;26642;55.766;37.828;2023-11-21T15:39:33;6.00;57.50
40636;DHT22;26642;55.766;37.828;2023-11-21T15:42:00;6.10;58.10
40636;DHT22;26642;55.766;37.828;2023-11-21T15:44:26;6.10;58.50
40636;DHT22;26642;55.766;37.828;2023-11-21T15:46:53;6.20;58.90
40636;DHT22;26642;55.766;37.828;2023-11-21T15:49:19;6.20;59.30
40636;DHT22;26642;55.766;37.828;2023-11-21T15:51:48;6.20;59.50
40636;DHT22;26642;55.766;37.828;2023-11-21T15:54:23;6.30;59.90
40636;DHT22;26642;55.766;37.828;2023-11-21T15:56:54;6.30;60.00
40636;DHT22;26642;55.766;37.828;2023-11-21T15:59:25;6.40;60.10
40636;DHT22;26642;55.766;37.828;2023-11-21T16:01:56;6.40;59.90
40636;DHT22;26642;55.766;37.828;2023-11-21T16:04:23;6.40;59.70
40636;DHT22;26642;55.766;37.828;2023-11-21T16:06:52;6.40;59.70
40636;DHT22;26642;55.766;37.828;2023-11-21T16:09:19;6.50;60.40
40636;DHT22;26642;55.766;37.828;2023-11-21T16:11:50;6.60;59.70
40636;DHT22;26642;55.766;37.828;2023-11-21T16:14:24;6.60;59.70
40636;DHT22;26642;55.766;37.828;2023-11-21T16:16:53;6.60;59.70
40636;DHT22;26642;55.766;37.828;2023-11-21T16:19:38;6.70;59.60
40636;DHT22;26642;55.766;37.828;2023-11-21T16:22:34;6.70;59.60
40636;DHT22;26642;55.766;37.828;2023-11-21T16:25:00;6.70;59.40
40636;DHT22;26642;55.766;37.828;2023-11-21T16:27:27;6.70;59.20
40636;DHT22;26642;55.766;37.828;2023-11-21T16:29:53;6.70;59.10
40636;DHT22;26642;55.766;37.828;2023-11-21T16:32:19;6.80;59.20
40636;DHT22;26642;55.766;37.828;2023-11-21T16:34:47;6.80;59.00
40636;DHT22;26642;55.766;37.828;2023-11-21T16:37:13;6.80;59.00
40636;DHT22;26642;55.766;37.828;2023-11-21T16:39:39;6.80;59.30
40636;DHT22;26642;55.766;37.828;2023-11-21T16:42:07;6.90;59.50
40636;DHT22;26642;55.766;37.828;2023-11-21T16:44:33;6.90;59.70
40636;DHT22;26642;55.766;37.828;2023-11-21T16:46:59;6.90;59.60
40636;DHT22;26642;55.766;37.828;2023-11-21T16:49:32;6.90;59.50
40636;DHT22;26642;55.766;37.828;2023-11-21T16:51:59;6.90;59.30
40636;DHT22;26642;55.766;37.828;2023-11-21T16:54:29;7.00;59.20
40636;DHT22;26642;55.766;37.828;2023-11-21T16:56:55;7.00;59.10
40636;DHT22;26642;55.766;37.828;2023-11-21T16:59:21;7.00;59.10
40636;DHT22;26642;55.766;37.828;2023-11-21T17:01:47;7.00;60.10
40636;DHT22;26642;55.766;37.828;2023-11-21T17:04:14;7.10;61.50
40636;DHT22;26642;55.766;37.828;2023-11-21T17:06:46;7.10;62.00
40636;DHT22;26642;55.766;37.828;2023-11-21T17:09:13;7.10;61.90
40636;DHT22;26642;55.766;37.828;2023-11-21T17:11:40;7.10;61.70
40636;DHT22;26642;55.766;37.828;2023-11-21T17:14:07;7.20;61.60
40636;DHT22;26642;55.766;37.828;2023-11-21T17:16:34;7.20;61.20